Time;durP1;ratioP1;P1;durP2;ratioP2;P2;SDS_P1;SDS_P2;PMS_P1;PMS_P2;Temp;Humidity;BMP_temperature;BMP_pressure;BME280_temperature;BME280_humidity;BME280_pressure;Samples;Min_cycle;Max_cycle;Signal;HPM_P1;HPM_P2
2021/06/04 00:02:24;;;;;;;1.40;1.30;;;18.20;71.60;;;;;;10527307;28;20260;-24
2021/06/04 00:07:46;;;;;;;1.83;1.47;;;18.30;71.70;;;;;;10536975;28;20731;-24
2021/06/04 00:13:26;;;;;;;1.30;1.20;;;18.20;71.70;;;;;;10534797;28;20566;-23
2021/06/04 00:18:50;;;;;;;1.67;1.50;;;18.20;71.70;;;;;;10495438;28;20240;-21
2021/06/04 00:24:13;;;;;;;1.37;1.27;;;18.20;71.80;;;;;;10533823;28;20539;-21
2021/06/04 00:29:35;;;;;;;1.60;1.50;;;18.20;71.80;;;;;;10536536;28;20254;-23
2021/06/04 00:34:58;;;;;;;1.70;1.60;;;18.20;71.70;;;;;;10536140;28;20192;-23
2021/06/04 00:40:23;;;;;;;1.37;1.27;;;18.20;71.80;;;;;;10535867;28;20734;-23
2021/06/04 00:45:48;;;;;;;1.63;1.30;;;18.20;71.70;;;;;;10531610;28;20289;-24
2021/06/04 00:51:15;;;;;;;1.50;1.40;;;18.20;71.80;;;;;;10526221;28;20567;-25
2021/06/04 00:56:38;;;;;;;1.40;1.30;;;18.20;71.70;;;;;;10534237;28;20235;-23
2021/06/04 01:02:00;;;;;;;1.53;1.43;;;18.20;71.80;;;;;;10535612;28;20184;-23
2021/06/04 01:07:31;;;;;;;1.60;1.50;;;18.20;71.80;;;;;;10535233;28;20302;-22
2021/06/04 01:13:06;;;;;;;1.50;1.40;;;18.30;72.00;;;;;;10510392;28;20204;-21
2021/06/04 01:18:37;;;;;;;1.30;1.23;;;18.20;71.70;;;;;;10498317;28;20212;-24
2021/06/04 01:24:16;;;;;;;1.60;1.50;;;18.20;71.90;;;;;;10504833;28;20612;-24
2021/06/04 01:29:44;;;;;;;1.37;1.27;;;18.20;72.00;;;;;;10534577;28;20212;-24
2021/06/04 01:35:11;;;;;;;1.53;1.43;;;18.20;72.00;;;;;;10533857;28;20207;-23
2021/06/04 01:40:37;;;;;;;1.43;1.33;;;18.20;72.10;;;;;;10534319;28;20674;-23
2021/06/04 01:46:04;;;;;;;1.30;1.20;;;18.20;72.00;;;;;;10534194;28;20698;-24
2021/06/04 01:51:31;;;;;;;1.60;1.50;;;18.20;71.80;;;;;;10533830;28;20279;-25
2021/06/04 01:56:57;;;;;;;2.10;1.43;;;18.20;72.00;;;;;;10541195;28;20212;-22
2021/06/04 02:02:20;;;;;;;1.80;1.63;;;18.20;72.00;;;;;;10542013;28;20226;-24
2021/06/04 02:07:42;;;;;;;1.50;1.40;;;18.20;72.00;;;;;;10540851;28;20212;-23
2021/06/04 02:13:04;;;;;;;1.70;1.60;;;18.20;72.00;;;;;;10541030;28;20670;-22
2021/06/04 02:18:33;;;;;;;1.73;1.30;;;18.20;72.20;;;;;;10539477;28;20215;-23
2021/06/04 02:24:09;;;;;;;1.60;1.50;;;18.20;72.00;;;;;;10540732;28;20199;-24
2021/06/04 02:29:36;;;;;;;2.47;1.40;;;18.20;72.00;;;;;;10540063;28;20215;-22
2021/06/04 02:35:06;;;;;;;1.57;1.47;;;18.20;72.00;;;;;;10540464;28;20587;-21
2021/06/04 02:40:32;;;;;;;1.63;1.53;;;18.20;72.20;;;;;;10540527;28;20230;-24
2021/06/04 02:46:00;;;;;;;1.70;1.60;;;18.20;72.10;;;;;;10539378;28;20740;-24
2021/06/04 02:51:30;;;;;;;1.40;1.30;;;18.20;72.10;;;;;;10539601;28;20187;-24
2021/06/04 02:56:55;;;;;;;1.53;1.43;;;18.20;72.10;;;;;;10539575;28;20212;-24
2021/06/04 03:02:22;;;;;;;1.37;1.27;;;18.20;72.30;;;;;;10539314;28;20586;-24
2021/06/04 03:07:45;;;;;;;1.50;1.40;;;18.20;72.20;;;;;;10539274;28;20211;-25
2021/06/04 03:13:12;;;;;;;1.40;1.30;;;18.20;72.20;;;;;;10537398;28;20195;-23
2021/06/04 03:18:37;;;;;;;1.70;1.60;;;18.20;72.30;;;;;;10524780;28;20266;-22
2021/06/04 03:24:03;;;;;;;1.70;1.60;;;18.20;72.30;;;;;;10525394;28;20192;-23
2021/06/04 03:29:25;;;;;;;1.30;1.20;;;18.20;72.30;;;;;;10564001;22;20226;-21
2021/06/04 03:34:48;;;;;;;1.50;1.40;;;18.20;72.40;;;;;;10579371;28;20195;-22
2021/06/04 03:40:14;;;;;;;1.53;1.40;;;18.20;72.40;;;;;;10527046;28;20719;-22
2021/06/04 03:45:38;;;;;;;1.70;1.60;;;18.20;72.30;;;;;;10522541;28;20200;-21
2021/06/04 03:51:06;;;;;;;1.40;1.30;;;18.20;72.30;;;;;;10495941;28;20663;-23
2021/06/04 03:56:30;;;;;;;1.90;1.60;;;18.20;72.20;;;;;;10501082;28;20207;-22
2021/06/04 04:01:55;;;;;;;1.30;1.20;;;18.20;72.30;;;;;;10512235;28;20682;-22
2021/06/04 04:07:17;;;;;;;1.97;1.37;;;18.20;72.40;;;;;;10514101;28;20283;-22
2021/06/04 04:12:40;;;;;;;1.47;1.37;;;18.20;72.40;;;;;;10500188;28;20196;-22
2021/06/04 04:18:03;;;;;;;1.50;1.40;;;18.20;72.50;;;;;;10510360;28;20212;-21
2021/06/04 04:23:27;;;;;;;1.60;1.47;;;18.20;72.60;;;;;;10512212;28;20283;-21
2021/06/04 04:28:51;;;;;;;2.23;2.03;;;18.20;72.40;;;;;;10555393;28;20223;-20
2021/06/04 04:34:13;;;;;;;1.50;1.40;;;18.20;72.40;;;;;;10570740;28;20187;-21
2021/06/04 04:39:37;;;;;;;1.97;1.80;;;18.20;72.50;;;;;;10571509;28;20219;-20
2021/06/04 04:45:00;;;;;;;2.70;1.50;;;18.20;72.40;;;;;;10560001;28;20567;-19
2021/06/04 04:50:25;;;;;;;1.53;1.43;;;18.20;72.50;;;;;;10570285;28;20763;-21
2021/06/04 04:55:47;;;;;;;1.77;1.67;;;18.20;72.50;;;;;;10570454;28;20199;-21
2021/06/04 05:01:12;;;;;;;2.13;1.90;;;18.20;72.60;;;;;;10572432;28;20219;-21
2021/06/04 05:06:34;;;;;;;1.43;1.33;;;18.20;72.60;;;;;;10575141;28;20762;-21
2021/06/04 05:11:56;;;;;;;1.53;1.43;;;18.20;72.60;;;;;;10558964;28;20195;-20
2021/06/04 05:17:19;;;;;;;1.60;1.50;;;18.20;72.70;;;;;;10541501;28;20215;-21
2021/06/04 05:22:41;;;;;;;1.50;1.27;;;18.20;72.50;;;;;;10561333;28;20717;-21
2021/06/04 05:28:05;;;;;;;1.97;1.40;;;18.20;72.70;;;;;;10585960;28;20237;-22
2021/06/04 05:33:32;;;;;;;1.70;1.60;;;18.20;72.60;;;;;;10551538;28;20203;-20
2021/06/04 05:38:55;;;;;;;1.60;1.50;;;18.20;72.60;;;;;;10542952;28;20386;-20
2021/06/04 05:44:20;;;;;;;1.83;1.60;;;18.20;72.60;;;;;;10554097;28;20187;-20
2021/06/04 05:49:43;;;;;;;3.40;1.57;;;18.20;72.70;;;;;;10583809;28;20223;-21
2021/06/04 05:55:07;;;;;;;5.37;1.60;;;18.20;72.60;;;;;;10555777;28;20577;-21
2021/06/04 06:00:32;;;;;;;1.60;1.50;;;18.20;72.70;;;;;;10560951;28;20219;-21
2021/06/04 06:05:55;;;;;;;2.13;1.50;;;18.20;72.60;;;;;;10582735;28;20248;-21
2021/06/04 06:11:22;;;;;;;2.13;1.57;;;18.30;72.60;;;;;;10584400;28;20202;-21
2021/06/04 06:16:44;;;;;;;1.90;1.70;;;18.30;72.70;;;;;;10542152;28;20208;-21
2021/06/04 06:22:07;;;;;;;1.60;1.50;;;18.30;72.60;;;;;;10542956;28;20226;-20
2021/06/04 06:27:29;;;;;;;1.50;1.40;;;18.30;72.90;;;;;;10577981;28;20218;-21
2021/06/04 06:32:50;;;;;;;1.70;1.50;;;18.30;73.00;;;;;;10582584;28;20187;-21
2021/06/04 06:38:14;;;;;;;1.53;1.43;;;18.30;72.70;;;;;;10582144;28;20226;-21
2021/06/04 06:43:37;;;;;;;1.37;1.27;;;18.30;72.80;;;;;;10559941;28;20195;-24
2021/06/04 06:48:59;;;;;;;1.60;1.50;;;18.30;72.60;;;;;;10548256;28;20631;-22
2021/06/04 06:54:26;;;;;;;1.67;1.57;;;18.40;73.00;;;;;;10566004;28;20215;-21
2021/06/04 06:59:47;;;;;;;1.60;1.50;;;18.30;72.70;;;;;;10541515;28;20216;-21
2021/06/04 07:05:10;;;;;;;1.53;1.40;;;18.40;73.10;;;;;;10542124;28;20207;-22
2021/06/04 07:10:35;;;;;;;1.60;1.50;;;18.40;72.70;;;;;;10538617;28;20218;-22
2021/06/04 07:16:00;;;;;;;1.40;1.30;;;18.40;73.10;;;;;;10538196;28;20604;-22
2021/06/04 07:21:24;;;;;;;1.40;1.30;;;18.40;72.50;;;;;;10543461;28;20228;-22
2021/06/04 07:26:50;;;;;;;2.27;1.43;;;18.40;72.70;;;;;;10546475;28;20280;-22
2021/06/04 07:32:12;;;;;;;1.57;1.40;;;18.40;73.10;;;;;;10562602;28;20199;-21
2021/06/04 07:37:33;;;;;;;2.43;1.50;;;18.40;73.30;;;;;;10580490;28;20651;-20
2021/06/04 07:42:59;;;;;;;1.60;1.50;;;18.40;73.50;;;;;;10550460;28;20284;-22
2021/06/04 07:48:21;;;;;;;2.30;1.37;;;18.40;73.40;;;;;;10546493;28;20200;-21
2021/06/04 07:53:43;;;;;;;3.30;1.63;;;18.40;73.50;;;;;;10561154;28;20566;-22
2021/06/04 07:59:06;;;;;;;5.80;1.40;;;18.50;72.40;;;;;;10536610;28;20230;-22
2021/06/04 08:04:27;;;;;;;1.60;1.40;;;18.50;72.20;;;;;;10537258;28;20192;-22
2021/06/04 08:09:49;;;;;;;3.97;1.80;;;18.50;72.30;;;;;;10537448;28;20208;-21
2021/06/04 08:15:17;;;;;;;2.90;2.20;;;18.50;72.50;;;;;;10566011;28;20670;-22
2021/06/04 08:20:40;;;;;;;2.90;2.43;;;18.60;73.00;;;;;;10578757;28;20702;-22
2021/06/04 08:26:04;;;;;;;6.07;2.50;;;18.50;73.00;;;;;;10552584;28;20204;-22
2021/06/04 08:31:28;;;;;;;2.60;2.40;;;18.60;73.30;;;;;;10551896;28;20187;-22
2021/06/04 08:36:50;;;;;;;3.93;2.57;;;18.60;73.20;;;;;;10577145;28;20668;-22
2021/06/04 08:42:28;;;;;;;2.80;2.60;;;18.60;73.40;;;;;;10556009;28;20303;-22
2021/06/04 08:47:57;;;;;;;3.30;3.00;;;18.60;73.70;;;;;;10535554;28;20219;-22
2021/06/04 08:53:23;;;;;;;3.00;2.73;;;18.60;73.80;;;;;;10563100;28;20746;-21
2021/06/04 08:58:50;;;;;;;3.77;3.10;;;18.60;73.70;;;;;;10554429;28;20212;-21
2021/06/04 09:04:18;;;;;;;4.07;2.80;;;18.70;72.70;;;;;;10568297;28;20585;-21
2021/06/04 09:09:43;;;;;;;4.73;2.80;;;18.70;72.50;;;;;;10577625;28;20240;-21
2021/06/04 09:15:07;;;;;;;2.67;2.47;;;18.80;72.50;;;;;;10576650;28;20202;-21
2021/06/04 09:20:38;;;;;;;3.00;2.70;;;18.80;72.40;;;;;;10555531;28;20226;-21
2021/06/04 09:26:00;;;;;;;2.93;2.70;;;18.80;72.20;;;;;;10576575;28;20229;-21
2021/06/04 09:31:32;;;;;;;2.87;2.40;;;18.80;72.20;;;;;;10582377;22;20238;-24
2021/06/04 09:36:58;;;;;;;2.73;2.53;;;18.80;72.20;;;;;;10549520;28;20199;-25
2021/06/04 09:42:23;;;;;;;2.90;2.57;;;18.80;72.30;;;;;;10574365;28;20727;-23
2021/06/04 09:47:48;;;;;;;3.60;2.40;;;18.80;72.30;;;;;;10545227;28;20694;-21
2021/06/04 09:53:14;;;;;;;4.03;2.67;;;18.80;72.30;;;;;;10555334;28;20203;-24
2021/06/04 09:58:48;;;;;;;2.60;2.40;;;18.80;72.40;;;;;;10532362;28;20229;-25
2021/06/04 10:04:15;;;;;;;2.90;2.10;;;18.80;72.30;;;;;;10534257;28;20275;-24
2021/06/04 10:09:42;;;;;;;2.80;2.50;;;18.80;72.40;;;;;;10536111;28;20375;-24
2021/06/04 10:15:14;;;;;;;2.73;2.50;;;18.80;72.40;;;;;;10540582;28;20281;-25
2021/06/04 10:20:45;;;;;;;4.27;2.33;;;18.80;72.40;;;;;;10539813;28;20220;-27
2021/06/04 10:26:22;;;;;;;2.50;2.30;;;18.80;72.40;;;;;;10569362;28;20662;-25
2021/06/04 10:31:49;;;;;;;2.90;2.70;;;18.80;72.30;;;;;;10573464;28;20230;-27
2021/06/04 10:37:17;;;;;;;2.73;2.47;;;18.80;72.40;;;;;;10569843;28;20212;-25
2021/06/04 10:43:02;;;;;;;2.60;2.40;;;18.80;72.50;;;;;;10549745;28;20257;-26
2021/06/04 10:48:41;;;;;;;2.17;1.97;;;18.80;72.40;;;;;;10539915;28;20575;-24
2021/06/04 10:54:17;;;;;;;2.97;2.27;;;18.90;72.40;;;;;;10577992;28;20191;-25
2021/06/04 10:59:48;;;;;;;2.40;2.20;;;18.80;72.50;;;;;;10578829;28;20226;-24
2021/06/04 11:05:27;;;;;;;2.27;2.17;;;18.80;72.60;;;;;;10574452;28;20188;-26
2021/06/04 11:10:56;;;;;;;2.60;2.40;;;18.70;72.60;;;;;;10538635;28;20208;-26
2021/06/04 11:16:30;;;;;;;2.40;2.20;;;18.70;72.80;;;;;;10550929;28;20662;-26
2021/06/04 11:21:56;;;;;;;2.80;2.13;;;18.60;72.80;;;;;;10566222;28;20226;-26
2021/06/04 11:27:23;;;;;;;2.97;2.17;;;18.70;73.10;;;;;;10580381;28;20214;-24
2021/06/04 11:32:59;;;;;;;2.70;2.10;;;18.70;73.40;;;;;;10579090;28;20191;-24
2021/06/04 11:38:32;;;;;;;2.60;2.40;;;18.60;73.30;;;;;;10579353;28;20272;-26
2021/06/04 11:44:04;;;;;;;2.77;2.50;;;18.60;72.90;;;;;;10562725;28;20195;-28
2021/06/04 11:49:27;;;;;;;2.63;2.30;;;18.60;73.10;;;;;;10537103;28;20204;-25
2021/06/04 11:54:49;;;;;;;2.70;2.50;;;18.70;73.00;;;;;;10548639;28;20203;-22
2021/06/04 12:00:42;;;;;;;2.30;2.10;;;18.60;73.20;;;;;;10577052;28;20226;-26
2021/06/04 12:06:36;;;;;;;2.87;2.40;;;18.60;73.20;;;;;;10565015;28;20207;-25
2021/06/04 12:12:31;;;;;;;2.93;2.47;;;18.60;73.20;;;;;;10535508;28;20184;-25
2021/06/04 12:17:53;;;;;;;3.00;2.63;;;18.60;73.00;;;;;;10562318;28;20215;-26
2021/06/04 12:23:46;;;;;;;3.70;2.10;;;18.60;73.60;;;;;;10568206;28;20191;-21
2021/06/04 12:29:40;;;;;;;4.37;2.27;;;18.70;73.00;;;;;;10577181;28;20720;-27
2021/06/04 12:35:05;;;;;;;18.07;2.80;;;18.70;73.70;;;;;;10576569;28;20195;-23
2021/06/04 12:40:32;;;;;;;2.73;2.50;;;18.70;73.10;;;;;;10569630;28;20223;-24
2021/06/04 12:45:58;;;;;;;3.33;2.40;;;18.70;73.20;;;;;;10534702;28;20204;-26
2021/06/04 12:51:22;;;;;;;3.07;2.30;;;18.70;72.90;;;;;;10561288;28;20207;-25
2021/06/04 12:56:47;;;;;;;2.83;2.63;;;18.60;73.20;;;;;;10567480;28;20720;-25
2021/06/04 13:02:12;;;;;;;2.60;2.40;;;18.60;73.10;;;;;;10533048;28;20222;-22
2021/06/04 13:07:37;;;;;;;2.70;2.47;;;18.70;73.40;;;;;;10534942;28;20755;-24
2021/06/04 13:13:14;;;;;;;4.00;2.33;;;18.70;73.10;;;;;;10533242;28;20662;-25
2021/06/04 13:18:35;;;;;;;2.60;2.40;;;18.70;73.30;;;;;;10555725;28;20230;-25
2021/06/04 13:24:02;;;;;;;2.30;2.10;;;18.60;73.70;;;;;;10539602;28;20777;-25
2021/06/04 13:29:29;;;;;;;2.77;2.53;;;18.70;73.60;;;;;;10540450;28;20224;-23
2021/06/04 13:34:56;;;;;;;4.97;2.60;;;18.70;73.30;;;;;;10532385;28;20563;-22
2021/06/04 13:40:19;;;;;;;2.40;2.20;;;18.60;73.20;;;;;;10539092;28;20215;-30
2021/06/04 13:45:45;;;;;;;4.07;2.20;;;18.60;73.20;;;;;;10559496;28;20199;-25
2021/06/04 13:51:11;;;;;;;3.55;2.50;;;18.70;73.30;;;;;;10557987;28;20413;-26
2021/06/04 13:56:39;;;;;;;4.00;2.07;;;18.80;73.20;;;;;;10556595;28;20539;-27
2021/06/04 14:02:29;;;;;;;2.90;2.70;;;18.70;73.10;;;;;;10560803;28;20212;-24
2021/06/04 14:07:51;;;;;;;8.73;2.73;;;18.70;73.10;;;;;;10553737;28;20207;-25
2021/06/04 14:13:16;;;;;;;4.83;2.50;;;18.70;73.60;;;;;;10547197;28;20654;-26
2021/06/04 14:18:58;;;;;;;2.83;2.30;;;18.70;74.00;;;;;;10572813;28;20783;-25
2021/06/04 14:24:49;;;;;;;2.40;2.20;;;18.70;73.90;;;;;;10581973;28;20674;-25
2021/06/04 14:30:38;;;;;;;2.50;2.30;;;18.70;74.00;;;;;;10540550;28;20217;-23
2021/06/04 14:36:12;;;;;;;2.60;2.30;;;18.70;73.70;;;;;;10555315;28;20187;-25
2021/06/04 14:41:33;;;;;;;3.80;2.10;;;18.70;73.80;;;;;;10565879;28;20215;-25
2021/06/04 14:46:57;;;;;;;2.67;2.30;;;18.70;74.10;;;;;;10540457;28;20199;-25
2021/06/04 14:52:21;;;;;;;2.43;2.23;;;18.60;73.70;;;;;;10539113;28;20196;-25
2021/06/04 14:57:43;;;;;;;2.47;2.27;;;18.70;73.70;;;;;;10535334;28;20336;-28
2021/06/04 15:03:06;;;;;;;2.53;2.33;;;18.70;74.20;;;;;;10549919;28;20218;-25
2021/06/04 15:08:29;;;;;;;2.83;2.63;;;18.60;74.00;;;;;;10548990;28;20218;-28
2021/06/04 15:13:54;;;;;;;2.77;2.57;;;18.60;73.80;;;;;;10578723;28;20241;-22
2021/06/04 15:19:16;;;;;;;3.27;2.37;;;18.60;74.20;;;;;;10563260;28;20690;-26
2021/06/04 15:24:40;;;;;;;2.60;2.30;;;18.70;73.80;;;;;;10578206;28;20190;-25
2021/06/04 15:30:03;;;;;;;2.60;2.37;;;18.70;74.10;;;;;;10536964;22;20238;-23
2021/06/04 15:35:26;;;;;;;2.50;2.30;;;18.60;74.10;;;;;;10493901;28;20193;-22
2021/06/04 15:40:49;;;;;;;3.07;2.50;;;18.60;74.00;;;;;;10491192;28;20243;-22
2021/06/04 15:46:11;;;;;;;3.53;2.60;;;18.70;74.10;;;;;;10486919;28;20204;-24
2021/06/04 15:51:32;;;;;;;2.97;2.37;;;18.60;73.70;;;;;;10492685;28;20694;-26
2021/06/04 15:56:55;;;;;;;2.70;2.50;;;18.60;73.60;;;;;;10494251;28;20195;-22
2021/06/04 16:02:22;;;;;;;2.43;2.23;;;18.60;74.10;;;;;;10492207;28;20220;-25
2021/06/04 16:07:44;;;;;;;3.00;2.60;;;18.60;74.20;;;;;;10493000;28;20223;-23
2021/06/04 16:13:09;;;;;;;2.60;2.40;;;18.70;73.70;;;;;;10490848;28;20196;-23
2021/06/04 16:18:31;;;;;;;2.50;2.30;;;18.60;74.10;;;;;;10493415;28;20695;-23
2021/06/04 16:23:53;;;;;;;2.77;2.57;;;18.60;74.10;;;;;;10492865;28;20199;-23
2021/06/04 16:29:16;;;;;;;5.33;2.37;;;18.60;74.30;;;;;;10487013;28;20232;-25
2021/06/04 16:34:38;;;;;;;7.20;2.50;;;18.60;73.90;;;;;;10462792;28;20205;-23
2021/06/04 16:40:00;;;;;;;2.90;2.60;;;18.70;73.70;;;;;;10488194;28;20212;-23
2021/06/04 16:45:25;;;;;;;5.33;2.40;;;18.60;73.80;;;;;;10493082;28;20689;-22
2021/06/04 16:50:46;;;;;;;4.10;2.83;;;18.70;73.80;;;;;;10493556;28;20208;-25
2021/06/04 16:56:10;;;;;;;3.70;2.77;;;18.70;74.20;;;;;;10492956;28;20689;-22
2021/06/04 17:01:33;;;;;;;3.40;2.40;;;18.70;74.10;;;;;;10520748;28;20232;-23
2021/06/04 17:06:55;;;;;;;5.73;2.47;;;18.70;73.90;;;;;;10526982;28;20287;-22
2021/06/04 17:12:16;;;;;;;3.50;2.30;;;18.70;73.90;;;;;;10492169;28;20567;-23
2021/06/04 17:17:40;;;;;;;2.80;2.23;;;18.70;74.10;;;;;;10490631;28;20432;-26
2021/06/04 17:23:02;;;;;;;4.33;2.73;;;18.70;74.40;;;;;;10500558;28;20220;-23
2021/06/04 17:28:29;;;;;;;2.80;2.60;;;18.70;74.50;;;;;;10500849;28;20220;-22
2021/06/04 17:33:53;;;;;;;2.90;2.60;;;18.70;74.40;;;;;;10490690;28;20204;-22
2021/06/04 17:39:15;;;;;;;3.20;2.90;;;18.70;74.50;;;;;;10499550;28;20231;-22
2021/06/04 17:44:37;;;;;;;2.80;2.60;;;18.70;74.50;;;;;;10500619;28;20242;-23
2021/06/04 17:50:00;;;;;;;3.67;2.77;;;18.70;74.20;;;;;;10483345;28;20707;-23
2021/06/04 17:55:24;;;;;;;2.80;2.60;;;18.70;74.40;;;;;;10493944;28;20201;-24
2021/06/04 18:00:46;;;;;;;4.93;3.23;;;18.70;74.40;;;;;;10536130;28;20733;-23
2021/06/04 18:06:09;;;;;;;3.97;2.80;;;18.70;74.40;;;;;;10497989;28;20204;-23
2021/06/04 18:11:31;;;;;;;2.80;2.60;;;18.70;74.50;;;;;;10499016;28;20240;-22
2021/06/04 18:16:53;;;;;;;2.60;2.40;;;18.70;74.40;;;;;;10493488;28;20556;-23
2021/06/04 18:22:16;;;;;;;2.80;2.60;;;18.70;74.10;;;;;;10497732;28;20212;-22
2021/06/04 18:27:38;;;;;;;3.13;2.83;;;18.70;74.40;;;;;;10498564;28;20216;-22
2021/06/04 18:33:00;;;;;;;3.30;3.00;;;18.70;74.40;;;;;;10496794;28;20199;-22
2021/06/04 18:38:24;;;;;;;2.63;2.43;;;18.70;74.60;;;;;;10497927;28;20216;-22
2021/06/04 18:43:49;;;;;;;2.70;2.50;;;18.70;74.40;;;;;;10497946;28;20227;-24
2021/06/04 18:49:10;;;;;;;2.50;2.30;;;18.70;74.30;;;;;;10497485;28;20208;-22
2021/06/04 18:54:33;;;;;;;2.80;2.57;;;18.70;74.70;;;;;;10492945;28;20226;-25
2021/06/04 18:59:55;;;;;;;3.50;2.77;;;18.70;74.70;;;;;;10495373;28;20576;-23
2021/06/04 19:05:16;;;;;;;6.77;2.37;;;18.70;74.10;;;;;;10486979;28;20197;-23
2021/06/04 19:10:40;;;;;;;3.60;2.67;;;18.70;74.60;;;;;;10479470;28;20209;-22
2021/06/04 19:16:02;;;;;;;3.53;2.53;;;18.70;74.40;;;;;;10480965;28;20196;-23
2021/06/04 19:21:25;;;;;;;4.03;2.90;;;18.70;74.60;;;;;;10494109;28;20212;-25
2021/06/04 19:26:48;;;;;;;3.03;2.40;;;18.70;74.50;;;;;;10496341;28;20207;-25
2021/06/04 19:32:11;;;;;;;2.23;2.03;;;18.70;74.30;;;;;;10488087;28;20205;-22
2021/06/04 19:37:33;;;;;;;2.80;2.60;;;18.70;74.20;;;;;;10492238;28;20220;-23
2021/06/04 19:42:56;;;;;;;2.50;2.30;;;18.70;74.50;;;;;;10494327;28;20223;-22
2021/06/04 19:48:18;;;;;;;3.23;2.60;;;18.70;74.40;;;;;;10492797;28;20221;-25
2021/06/04 19:53:39;;;;;;;2.70;2.50;;;18.70;74.40;;;;;;10486242;28;20188;-22
2021/06/04 19:59:03;;;;;;;2.87;2.53;;;18.60;74.40;;;;;;10496128;28;20297;-22
2021/06/04 20:04:25;;;;;;;2.37;2.17;;;18.70;74.40;;;;;;10494030;28;20204;-24
2021/06/04 20:09:49;;;;;;;2.80;2.37;;;18.60;74.20;;;;;;10495902;28;20707;-23
2021/06/04 20:15:14;;;;;;;2.50;2.30;;;18.70;74.40;;;;;;10493352;28;20202;-23
2021/06/04 20:20:36;;;;;;;2.40;2.20;;;18.70;74.40;;;;;;10494330;28;20718;-23
2021/06/04 20:25:57;;;;;;;2.57;2.37;;;18.60;74.30;;;;;;10493485;28;20196;-22
2021/06/04 20:31:22;;;;;;;3.03;2.60;;;18.60;74.20;;;;;;10495350;28;20220;-22
2021/06/04 20:36:44;;;;;;;2.43;2.23;;;18.70;74.20;;;;;;10495027;28;20659;-22
2021/06/04 20:42:10;;;;;;;2.53;2.33;;;18.70;74.10;;;;;;10474854;28;20220;-22
2021/06/04 20:47:33;;;;;;;2.47;2.27;;;18.60;74.40;;;;;;10452230;28;20213;-23
2021/06/04 20:52:54;;;;;;;3.33;2.60;;;18.60;74.30;;;;;;10453396;28;20189;-22
2021/06/04 20:58:16;;;;;;;2.70;2.50;;;18.70;74.40;;;;;;10451884;28;20623;-23
2021/06/04 21:03:40;;;;;;;2.47;2.30;;;18.60;74.00;;;;;;10451807;28;20213;-26
2021/06/04 21:09:02;;;;;;;2.40;2.20;;;18.60;74.30;;;;;;10452068;28;20223;-23
2021/06/04 21:14:24;;;;;;;2.30;2.10;;;18.60;73.90;;;;;;10456692;28;20196;-23
2021/06/04 21:19:47;;;;;;;2.53;2.33;;;18.60;74.40;;;;;;10484847;28;20219;-23
2021/06/04 21:25:10;;;;;;;2.60;2.40;;;18.60;74.50;;;;;;10466882;28;20201;-23
2021/06/04 21:30:32;;;;;;;2.13;2.03;;;18.60;74.30;;;;;;10508534;22;20254;-27
2021/06/04 21:35:56;;;;;;;2.70;2.50;;;18.60;74.30;;;;;;10484369;28;20200;-26
2021/06/04 21:41:21;;;;;;;2.57;2.37;;;18.70;74.20;;;;;;10476120;28;20231;-25
2021/06/04 21:46:43;;;;;;;2.77;2.57;;;18.60;74.20;;;;;;10451755;28;20626;-26
2021/06/04 21:52:06;;;;;;;2.53;2.33;;;18.60;73.90;;;;;;10460823;28;20259;-29
2021/06/04 21:57:28;;;;;;;2.70;2.50;;;18.60;74.50;;;;;;10492317;28;20196;-26
2021/06/04 22:02:50;;;;;;;2.70;2.50;;;18.70;74.30;;;;;;10476466;28;20627;-25
2021/06/04 22:08:13;;;;;;;2.80;2.60;;;18.60;74.20;;;;;;10494936;28;20710;-24
2021/06/04 22:13:35;;;;;;;2.60;2.40;;;18.60;74.20;;;;;;10499369;28;20204;-27
2021/06/04 22:18:57;;;;;;;2.90;2.70;;;18.60;74.50;;;;;;10426924;28;20746;-27
2021/06/04 22:24:23;;;;;;;3.10;2.90;;;18.60;74.40;;;;;;10444278;28;20197;-24
2021/06/04 22:29:45;;;;;;;2.90;2.70;;;18.60;74.30;;;;;;10417946;28;20272;-25
2021/06/04 22:35:08;;;;;;;5.47;2.87;;;18.60;74.10;;;;;;10417471;28;20206;-26
2021/06/04 22:40:33;;;;;;;2.80;2.60;;;18.70;74.30;;;;;;10429831;28;20262;-24
2021/06/04 22:45:55;;;;;;;3.13;2.53;;;18.60;74.30;;;;;;10497701;28;20200;-26
2021/06/04 22:51:19;;;;;;;3.30;3.00;;;18.60;74.30;;;;;;10484849;28;20632;-24
2021/06/04 22:56:44;;;;;;;2.70;2.50;;;18.60;74.40;;;;;;10458158;28;20684;-24
2021/06/04 23:02:05;;;;;;;3.00;2.53;;;18.60;74.30;;;;;;10416327;28;20222;-25
2021/06/04 23:07:27;;;;;;;2.93;2.73;;;18.60;74.60;;;;;;10415585;28;20201;-25
2021/06/04 23:12:50;;;;;;;4.33;3.10;;;18.60;74.30;;;;;;10415934;28;20204;-27
2021/06/04 23:18:11;;;;;;;3.00;2.70;;;18.60;74.40;;;;;;10415905;28;20218;-26
2021/06/04 23:23:40;;;;;;;3.37;3.07;;;18.60;74.20;;;;;;10416971;28;20704;-28
2021/06/04 23:29:04;;;;;;;2.90;2.70;;;18.60;74.40;;;;;;10415497;28;20221;-26
2021/06/04 23:34:25;;;;;;;2.80;2.60;;;18.60;74.10;;;;;;10429923;28;20407;-26
2021/06/04 23:39:47;;;;;;;3.20;3.00;;;18.60;74.30;;;;;;10488634;28;20223;-25
2021/06/04 23:45:15;;;;;;;2.70;2.50;;;18.60;74.50;;;;;;10454657;28;20197;-26
2021/06/04 23:50:37;;;;;;;3.33;3.10;;;18.60;74.20;;;;;;10449524;28;20202;-25
2021/06/04 23:56:00;;;;;;;3.43;3.13;;;18.60;74.30;;;;;;10413206;28;20200;-25
